Beowawe, Nevada
Current Conditions -  °F | °C
As of 5:19 PM on Friday 19 Dec 2014 (Local Time) from KEKO Reporting Station
Unknown Precip Unknown Precip  
Wind Chill: 35°   Ceiling: 900
Heat Index: 35°   Visibility: 9mi
Dew Point: 33°   Wind: 3mph
Humidity: 92%   Direction: 190°S
Pressure: 30.12"   Gusts: NA
Location:  40.4796°N, 116.369°W
Report Text: KEKO 200119Z AUTO 19003KT 9SM UP OVC009 02/01 A3012 RMK AO2 RAE06UPB06 P0001 T00170006
Loading
Personal Weather Stations






























Interactive Weather Map New forecast layout! Learn more

10-Day Weather Forecast

Advertisements
Track Severe Weather on mobile